sensor_id;sensor_type;location;lat;lon;timestamp;pressure;altitude;pressure_sealevel;temperature;humidity
13705;BME280;6924;52.122;9.952;2023-06-10T00:00:08;100612.72;;;17.90;65.11
13705;BME280;6924;52.122;9.952;2023-06-10T00:02:37;100610.22;;;17.88;66.28
13705;BME280;6924;52.122;9.952;2023-06-10T00:05:04;100620.72;;;17.84;65.90
13705;BME280;6924;52.122;9.952;2023-06-10T00:07:32;100618.94;;;17.80;65.62
13705;BME280;6924;52.122;9.952;2023-06-10T00:09:59;100620.50;;;17.77;66.68
13705;BME280;6924;52.122;9.952;2023-06-10T00:12:29;100620.03;;;17.75;67.07
13705;BME280;6924;52.122;9.952;2023-06-10T00:14:56;100631.34;;;17.71;68.06
13705;BME280;6924;52.122;9.952;2023-06-10T00:17:22;100621.00;;;17.67;68.06
13705;BME280;6924;52.122;9.952;2023-06-10T00:19:50;100621.69;;;17.64;68.31
13705;BME280;6924;52.122;9.952;2023-06-10T00:22:18;100619.91;;;17.59;68.11
13705;BME280;6924;52.122;9.952;2023-06-10T00:24:45;100615.75;;;17.56;68.64
13705;BME280;6924;52.122;9.952;2023-06-10T00:27:12;100621.38;;;17.53;68.62
13705;BME280;6924;52.122;9.952;2023-06-10T00:29:39;100620.44;;;17.49;68.64
13705;BME280;6924;52.122;9.952;2023-06-10T00:32:06;100623.19;;;17.45;68.11
13705;BME280;6924;52.122;9.952;2023-06-10T00:34:32;100618.53;;;17.41;68.55
13705;BME280;6924;52.122;9.952;2023-06-10T00:36:59;100617.59;;;17.37;69.02
13705;BME280;6924;52.122;9.952;2023-06-10T00:39:25;100619.97;;;17.34;69.08
13705;BME280;6924;52.122;9.952;2023-06-10T00:41:53;100621.53;;;17.32;69.45
13705;BME280;6924;52.122;9.952;2023-06-10T00:44:19;100622.63;;;17.27;69.38
13705;BME280;6924;52.122;9.952;2023-06-10T00:46:46;100618.81;;;17.23;69.21
13705;BME280;6924;52.122;9.952;2023-06-10T00:49:12;100617.75;;;17.16;69.84
13705;BME280;6924;52.122;9.952;2023-06-10T00:51:39;100614.16;;;17.06;69.94
13705;BME280;6924;52.122;9.952;2023-06-10T00:54:06;100611.81;;;16.96;69.49
13705;BME280;6924;52.122;9.952;2023-06-10T00:56:33;100620.34;;;16.84;68.63
13705;BME280;6924;52.122;9.952;2023-06-10T00:59:02;100619.75;;;16.78;69.28
13705;BME280;6924;52.122;9.952;2023-06-10T01:01:28;100621.63;;;16.74;68.26
13705;BME280;6924;52.122;9.952;2023-06-10T01:03:55;100623.78;;;16.65;68.24
13705;BME280;6924;52.122;9.952;2023-06-10T01:06:30;100628.53;;;16.61;68.15
13705;BME280;6924;52.122;9.952;2023-06-10T01:09:06;100627.91;;;16.43;68.35
13705;BME280;6924;52.122;9.952;2023-06-10T01:11:42;100623.28;;;16.17;69.57
13705;BME280;6924;52.122;9.952;2023-06-10T01:14:12;100627.72;;;16.27;70.29
13705;BME280;6924;52.122;9.952;2023-06-10T01:16:39;100630.94;;;16.25;69.38
13705;BME280;6924;52.122;9.952;2023-06-10T01:19:06;100627.06;;;16.09;69.72
13705;BME280;6924;52.122;9.952;2023-06-10T01:21:34;100629.44;;;16.07;69.95
13705;BME280;6924;52.122;9.952;2023-06-10T01:24:01;100634.22;;;16.15;70.17
13705;BME280;6924;52.122;9.952;2023-06-10T01:26:30;100636.25;;;16.15;69.68
13705;BME280;6924;52.122;9.952;2023-06-10T01:29:00;100639.44;;;16.13;69.76
13705;BME280;6924;52.122;9.952;2023-06-10T01:31:36;100634.56;;;16.14;70.27
13705;BME280;6924;52.122;9.952;2023-06-10T01:34:08;100645.28;;;16.17;70.94
13705;BME280;6924;52.122;9.952;2023-06-10T01:36:38;100644.31;;;16.13;70.05
13705;BME280;6924;52.122;9.952;2023-06-10T01:39:05;100655.09;;;16.07;69.97
13705;BME280;6924;52.122;9.952;2023-06-10T01:41:32;100646.69;;;16.10;70.23
13705;BME280;6924;52.122;9.952;2023-06-10T01:43:59;100652.81;;;16.00;70.53
13705;BME280;6924;52.122;9.952;2023-06-10T01:46:25;100649.41;;;16.07;71.17
13705;BME280;6924;52.122;9.952;2023-06-10T01:48:51;100651.66;;;16.01;70.85
13705;BME280;6924;52.122;9.952;2023-06-10T01:51:18;100652.59;;;15.72;72.14
13705;BME280;6924;52.122;9.952;2023-06-10T01:53:46;100663.69;;;15.86;72.33
13705;BME280;6924;52.122;9.952;2023-06-10T01:56:13;100656.59;;;15.92;73.10
13705;BME280;6924;52.122;9.952;2023-06-10T01:58:43;100659.00;;;16.02;72.82
13705;BME280;6924;52.122;9.952;2023-06-10T02:01:09;100658.41;;;15.97;72.83
13705;BME280;6924;52.122;9.952;2023-06-10T02:03:36;100658.53;;;16.00;72.82
13705;BME280;6924;52.122;9.952;2023-06-10T02:06:03;100661.25;;;15.97;72.47
13705;BME280;6924;52.122;9.952;2023-06-10T02:08:29;100669.09;;;16.00;72.55
13705;BME280;6924;52.122;9.952;2023-06-10T02:10:57;100664.72;;;16.02;73.08
13705;BME280;6924;52.122;9.952;2023-06-10T02:13:23;100666.59;;;15.98;73.34
13705;BME280;6924;52.122;9.952;2023-06-10T02:15:50;100675.63;;;16.00;73.47
13705;BME280;6924;52.122;9.952;2023-06-10T02:18:18;100664.72;;;16.02;73.93
13705;BME280;6924;52.122;9.952;2023-06-10T02:20:45;100666.59;;;15.98;74.42
13705;BME280;6924;52.122;9.952;2023-06-10T02:23:12;100665.44;;;15.99;74.69
13705;BME280;6924;52.122;9.952;2023-06-10T02:25:38;100670.38;;;15.90;75.16
13705;BME280;6924;52.122;9.952;2023-06-10T02:28:06;100672.00;;;15.79;75.44
13705;BME280;6924;52.122;9.952;2023-06-10T02:30:33;100676.00;;;15.78;75.99
13705;BME280;6924;52.122;9.952;2023-06-10T02:32:59;100685.38;;;15.78;76.27
13705;BME280;6924;52.122;9.952;2023-06-10T02:35:26;100683.88;;;15.81;76.72
13705;BME280;6924;52.122;9.952;2023-06-10T02:37:52;100685.88;;;15.80;77.09
13705;BME280;6924;52.122;9.952;2023-06-10T02:40:19;100681.94;;;15.73;77.39
13705;BME280;6924;52.122;9.952;2023-06-10T02:42:45;100690.47;;;15.73;77.96
13705;BME280;6924;52.122;9.952;2023-06-10T02:45:13;100686.41;;;15.53;78.32
13705;BME280;6924;52.122;9.952;2023-06-10T02:47:39;100683.59;;;15.44;78.43
13705;BME280;6924;52.122;9.952;2023-06-10T02:50:06;100689.84;;;15.37;79.01
13705;BME280;6924;52.122;9.952;2023-06-10T02:52:33;100687.34;;;15.36;79.28
13705;BME280;6924;52.122;9.952;2023-06-10T02:54:59;100686.72;;;15.30;79.87
13705;BME280;6924;52.122;9.952;2023-06-10T02:57:26;100691.16;;;15.40;80.24
13705;BME280;6924;52.122;9.952;2023-06-10T02:59:52;100697.41;;;15.33;80.14
13705;BME280;6924;52.122;9.952;2023-06-10T03:02:20;100697.25;;;15.29;80.13
13705;BME280;6924;52.122;9.952;2023-06-10T03:04:47;100700.16;;;15.21;80.70
13705;BME280;6924;52.122;9.952;2023-06-10T03:07:15;100698.50;;;15.20;81.00
13705;BME280;6924;52.122;9.952;2023-06-10T03:09:43;100700.69;;;15.14;81.77
13705;BME280;6924;52.122;9.952;2023-06-10T03:12:10;100696.69;;;15.15;82.53
13705;BME280;6924;52.122;9.952;2023-06-10T03:14:36;100691.66;;;15.12;82.81
13705;BME280;6924;52.122;9.952;2023-06-10T03:17:04;100690.34;;;15.01;84.16
13705;BME280;6924;52.122;9.952;2023-06-10T03:19:32;100697.03;;;15.05;84.84
13705;BME280;6924;52.122;9.952;2023-06-10T03:22:08;100692.88;;;15.02;84.92
13705;BME280;6924;52.122;9.952;2023-06-10T03:24:34;100699.72;;;15.01;84.71
13705;BME280;6924;52.122;9.952;2023-06-10T03:27:06;100700.38;;;15.07;85.01
13705;BME280;6924;52.122;9.952;2023-06-10T03:29:32;100715.44;;;15.16;84.94
13705;BME280;6924;52.122;9.952;2023-06-10T03:31:59;100713.91;;;15.19;84.97
13705;BME280;6924;52.122;9.952;2023-06-10T03:34:25;100704.19;;;15.20;84.73
13705;BME280;6924;52.122;9.952;2023-06-10T03:36:53;100713.56;;;15.20;84.11
13705;BME280;6924;52.122;9.952;2023-06-10T03:39:19;100712.56;;;15.16;83.93
13705;BME280;6924;52.122;9.952;2023-06-10T03:41:46;100727.53;;;15.13;84.07
13705;BME280;6924;52.122;9.952;2023-06-10T03:44:12;100715.97;;;15.09;84.81
13705;BME280;6924;52.122;9.952;2023-06-10T03:46:38;100726.22;;;15.02;85.33
13705;BME280;6924;52.122;9.952;2023-06-10T03:49:05;100719.72;;;14.93;86.27
13705;BME280;6924;52.122;9.952;2023-06-10T03:51:32;100723.09;;;14.86;87.50
13705;BME280;6924;52.122;9.952;2023-06-10T03:53:59;100724.56;;;14.92;88.49
13705;BME280;6924;52.122;9.952;2023-06-10T03:56:26;100712.84;;;14.94;88.68
13705;BME280;6924;52.122;9.952;2023-06-10T03:58:53;100719.66;;;15.01;89.38
13705;BME280;6924;52.122;9.952;2023-06-10T04:01:20;100720.53;;;15.02;89.75
13705;BME280;6924;52.122;9.952;2023-06-10T04:03:48;100711.00;;;14.98;89.62
13705;BME280;6924;52.122;9.952;2023-06-10T04:06:16;100720.88;;;15.00;89.88
13705;BME280;6924;52.122;9.952;2023-06-10T04:08:43;100723.88;;;15.04;90.44
13705;BME280;6924;52.122;9.952;2023-06-10T04:11:11;100722.06;;;14.99;90.57
13705;BME280;6924;52.122;9.952;2023-06-10T04:13:37;100721.88;;;14.96;91.27
13705;BME280;6924;52.122;9.952;2023-06-10T04:16:04;100729.44;;;14.92;91.83
13705;BME280;6924;52.122;9.952;2023-06-10T04:18:31;100726.63;;;14.83;92.33
13705;BME280;6924;52.122;9.952;2023-06-10T04:20:57;100716.44;;;14.73;93.39
13705;BME280;6924;52.122;9.952;2023-06-10T04:23:24;100733.00;;;14.80;93.98
13705;BME280;6924;52.122;9.952;2023-06-10T04:25:51;100734.00;;;14.84;93.68
13705;BME280;6924;52.122;9.952;2023-06-10T04:28:19;100748.56;;;14.82;93.72
13705;BME280;6924;52.122;9.952;2023-06-10T04:30:45;100731.16;;;14.84;93.30
13705;BME280;6924;52.122;9.952;2023-06-10T04:33:11;100735.03;;;14.79;93.98
13705;BME280;6924;52.122;9.952;2023-06-10T04:35:38;100735.84;;;14.80;94.11
13705;BME280;6924;52.122;9.952;2023-06-10T04:38:04;100734.53;;;14.77;94.77
13705;BME280;6924;52.122;9.952;2023-06-10T04:40:31;100724.59;;;14.83;95.27
13705;BME280;6924;52.122;9.952;2023-06-10T04:42:57;100724.97;;;14.82;95.74
13705;BME280;6924;52.122;9.952;2023-06-10T04:45:25;100724.28;;;14.76;96.77
13705;BME280;6924;52.122;9.952;2023-06-10T04:47:51;100728.63;;;14.82;96.31
13705;BME280;6924;52.122;9.952;2023-06-10T04:50:20;100733.16;;;14.75;97.28
13705;BME280;6924;52.122;9.952;2023-06-10T04:52:47;100727.47;;;14.75;96.74
13705;BME280;6924;52.122;9.952;2023-06-10T04:55:13;100717.94;;;14.79;96.41
13705;BME280;6924;52.122;9.952;2023-06-10T04:57:40;100716.25;;;14.78;95.99
13705;BME280;6924;52.122;9.952;2023-06-10T05:00:07;100718.25;;;14.86;96.42
13705;BME280;6924;52.122;9.952;2023-06-10T05:02:35;100719.72;;;14.93;95.90
13705;BME280;6924;52.122;9.952;2023-06-10T05:05:01;100714.72;;;14.81;95.99
13705;BME280;6924;52.122;9.952;2023-06-10T05:07:28;100713.56;;;14.82;96.56
13705;BME280;6924;52.122;9.952;2023-06-10T05:09:54;100713.91;;;14.80;96.97
13705;BME280;6924;52.122;9.952;2023-06-10T05:12:21;100727.91;;;14.94;97.15
13705;BME280;6924;52.122;9.952;2023-06-10T05:14:47;100730.44;;;14.96;97.08
13705;BME280;6924;52.122;9.952;2023-06-10T05:17:14;100722.88;;;15.00;97.12
13705;BME280;6924;52.122;9.952;2023-06-10T05:19:41;100723.34;;;15.11;96.66
13705;BME280;6924;52.122;9.952;2023-06-10T05:22:08;100714.09;;;15.14;96.58
13705;BME280;6924;52.122;9.952;2023-06-10T05:24:35;100723.59;;;15.26;95.31
13705;BME280;6924;52.122;9.952;2023-06-10T05:27:01;100715.72;;;15.23;96.55
13705;BME280;6924;52.122;9.952;2023-06-10T05:29:28;100720.84;;;15.39;96.26
13705;BME280;6924;52.122;9.952;2023-06-10T05:31:55;100729.69;;;15.46;95.39
13705;BME280;6924;52.122;9.952;2023-06-10T05:34:22;100726.44;;;15.56;94.52
13705;BME280;6924;52.122;9.952;2023-06-10T05:36:50;100721.38;;;15.62;94.33
13705;BME280;6924;52.122;9.952;2023-06-10T05:39:16;100727.69;;;15.67;93.56
13705;BME280;6924;52.122;9.952;2023-06-10T05:41:43;100731.75;;;15.66;93.06
13705;BME280;6924;52.122;9.952;2023-06-10T05:44:09;100725.88;;;15.63;92.29
13705;BME280;6924;52.122;9.952;2023-06-10T05:46:36;100728.38;;;15.73;91.62
13705;BME280;6924;52.122;9.952;2023-06-10T05:49:02;100731.56;;;15.72;91.83
13705;BME280;6924;52.122;9.952;2023-06-10T05:51:29;100726.19;;;15.70;92.32
13705;BME280;6924;52.122;9.952;2023-06-10T05:53:56;100728.22;;;15.40;93.32
13705;BME280;6924;52.122;9.952;2023-06-10T05:56:23;100716.13;;;15.43;94.94
13705;BME280;6924;52.122;9.952;2023-06-10T05:58:51;100714.75;;;15.49;94.75
13705;BME280;6924;52.122;9.952;2023-06-10T06:01:17;100719.22;;;15.59;93.46
13705;BME280;6924;52.122;9.952;2023-06-10T06:03:43;100718.47;;;15.70;93.60
13705;BME280;6924;52.122;9.952;2023-06-10T06:06:10;100733.38;;;15.76;94.18
13705;BME280;6924;52.122;9.952;2023-06-10T06:08:36;100735.41;;;15.76;92.97
13705;BME280;6924;52.122;9.952;2023-06-10T06:11:04;100739.34;;;15.92;92.37
13705;BME280;6924;52.122;9.952;2023-06-10T06:13:30;100742.38;;;15.87;92.29
13705;BME280;6924;52.122;9.952;2023-06-10T06:15:57;100743.69;;;15.89;91.71
13705;BME280;6924;52.122;9.952;2023-06-10T06:18:23;100730.47;;;15.85;91.40
13705;BME280;6924;52.122;9.952;2023-06-10T06:20:49;100727.28;;;15.86;92.33
13705;BME280;6924;52.122;9.952;2023-06-10T06:23:16;100719.13;;;15.76;93.39
13705;BME280;6924;52.122;9.952;2023-06-10T06:25:42;100726.34;;;15.74;93.50
13705;BME280;6924;52.122;9.952;2023-06-10T06:28:10;100726.53;;;15.68;93.95
13705;BME280;6924;52.122;9.952;2023-06-10T06:30:37;100732.28;;;15.60;93.93
13705;BME280;6924;52.122;9.952;2023-06-10T06:33:03;100738.16;;;15.63;92.91
13705;BME280;6924;52.122;9.952;2023-06-10T06:35:30;100740.78;;;15.77;93.45
13705;BME280;6924;52.122;9.952;2023-06-10T06:37:57;100740.50;;;15.91;93.62
13705;BME280;6924;52.122;9.952;2023-06-10T06:40:29;100742.59;;;16.03;93.72
13705;BME280;6924;52.122;9.952;2023-06-10T06:42:55;100737.03;;;15.85;93.44
13705;BME280;6924;52.122;9.952;2023-06-10T06:45:23;100738.69;;;15.86;93.91
13705;BME280;6924;52.122;9.952;2023-06-10T06:47:49;100738.25;;;15.76;94.89
13705;BME280;6924;52.122;9.952;2023-06-10T06:50:16;100739.72;;;15.82;96.49
13705;BME280;6924;52.122;9.952;2023-06-10T06:52:52;100740.22;;;15.84;95.61
13705;BME280;6924;52.122;9.952;2023-06-10T06:55:19;100737.69;;;15.82;96.21
13705;BME280;6924;52.122;9.952;2023-06-10T06:57:45;100739.66;;;15.90;95.98
13705;BME280;6924;52.122;9.952;2023-06-10T07:00:12;100740.09;;;16.01;95.90
13705;BME280;6924;52.122;9.952;2023-06-10T07:02:57;100744.91;;;16.09;96.67
13705;BME280;6924;52.122;9.952;2023-06-10T07:05:41;100738.16;;;16.14;95.32
13705;BME280;6924;52.122;9.952;2023-06-10T07:08:07;100744.63;;;16.23;96.24
13705;BME280;6924;52.122;9.952;2023-06-10T07:10:33;100748.50;;;16.19;94.31
13705;BME280;6924;52.122;9.952;2023-06-10T07:13:00;100755.88;;;16.41;93.47
13705;BME280;6924;52.122;9.952;2023-06-10T07:15:26;100750.78;;;16.46;93.18
13705;BME280;6924;52.122;9.952;2023-06-10T07:17:54;100749.78;;;16.42;93.26
13705;BME280;6924;52.122;9.952;2023-06-10T07:20:21;100748.00;;;16.71;92.13
13705;BME280;6924;52.122;9.952;2023-06-10T07:22:47;100745.13;;;16.71;92.28
13705;BME280;6924;52.122;9.952;2023-06-10T07:25:14;100751.00;;;16.74;92.35
13705;BME280;6924;52.122;9.952;2023-06-10T07:27:40;100746.59;;;16.77;91.93
13705;BME280;6924;52.122;9.952;2023-06-10T07:30:08;100736.06;;;16.90;90.07
13705;BME280;6924;52.122;9.952;2023-06-10T07:32:34;100754.66;;;16.96;90.05
13705;BME280;6924;52.122;9.952;2023-06-10T07:35:02;100751.69;;;17.05;90.50
13705;BME280;6924;52.122;9.952;2023-06-10T07:37:29;100753.84;;;17.08;90.76
13705;BME280;6924;52.122;9.952;2023-06-10T07:39:56;100754.94;;;17.16;89.78
13705;BME280;6924;52.122;9.952;2023-06-10T07:42:22;100750.28;;;17.23;89.01
13705;BME280;6924;52.122;9.952;2023-06-10T07:44:49;100752.91;;;17.28;88.78
13705;BME280;6924;52.122;9.952;2023-06-10T07:47:15;100750.19;;;17.44;88.68
13705;BME280;6924;52.122;9.952;2023-06-10T07:49:41;100755.19;;;17.47;88.25
13705;BME280;6924;52.122;9.952;2023-06-10T07:52:09;100750.19;;;17.56;86.70
13705;BME280;6924;52.122;9.952;2023-06-10T07:54:36;100738.75;;;17.44;87.99
13705;BME280;6924;52.122;9.952;2023-06-10T07:57:02;100741.84;;;17.51;88.28
13705;BME280;6924;52.122;9.952;2023-06-10T07:59:29;100737.53;;;17.70;87.99
13705;BME280;6924;52.122;9.952;2023-06-10T08:01:55;100741.34;;;17.74;89.29
13705;BME280;6924;52.122;9.952;2023-06-10T08:04:21;100738.47;;;17.74;87.21
13705;BME280;6924;52.122;9.952;2023-06-10T08:06:48;100744.88;;;18.08;87.67
13705;BME280;6924;52.122;9.952;2023-06-10T08:09:16;100739.16;;;18.08;84.80
13705;BME280;6924;52.122;9.952;2023-06-10T08:11:43;100741.88;;;18.16;84.04
13705;BME280;6924;52.122;9.952;2023-06-10T08:14:10;100740.22;;;18.15;85.16
13705;BME280;6924;52.122;9.952;2023-06-10T08:16:36;100738.41;;;18.23;85.58
13705;BME280;6924;52.122;9.952;2023-06-10T08:19:02;100730.66;;;18.24;87.13
13705;BME280;6924;52.122;9.952;2023-06-10T08:21:29;100729.41;;;18.37;85.46
13705;BME280;6924;52.122;9.952;2023-06-10T08:23:55;100733.50;;;18.52;84.00
13705;BME280;6924;52.122;9.952;2023-06-10T08:26:23;100735.66;;;18.55;84.18
13705;BME280;6924;52.122;9.952;2023-06-10T08:28:49;100742.56;;;18.54;82.83
13705;BME280;6924;52.122;9.952;2023-06-10T08:31:16;100739.56;;;18.63;84.61
13705;BME280;6924;52.122;9.952;2023-06-10T08:33:42;100734.75;;;18.67;84.13
13705;BME280;6924;52.122;9.952;2023-06-10T08:36:09;100736.63;;;18.75;84.52
13705;BME280;6924;52.122;9.952;2023-06-10T08:38:35;100734.81;;;18.83;83.37
13705;BME280;6924;52.122;9.952;2023-06-10T08:41:03;100734.94;;;18.86;81.48
13705;BME280;6924;52.122;9.952;2023-06-10T08:43:40;100727.91;;;18.99;82.67
13705;BME280;6924;52.122;9.952;2023-06-10T08:46:08;100732.34;;;19.29;82.60
13705;BME280;6924;52.122;9.952;2023-06-10T08:48:42;100719.41;;;19.35;81.49
13705;BME280;6924;52.122;9.952;2023-06-10T08:51:10;100730.06;;;19.34;82.30
13705;BME280;6924;52.122;9.952;2023-06-10T08:53:38;100729.03;;;19.43;81.59
13705;BME280;6924;52.122;9.952;2023-06-10T08:56:10;100731.63;;;19.48;80.95
13705;BME280;6924;52.122;9.952;2023-06-10T08:58:39;100731.72;;;19.51;81.19
13705;BME280;6924;52.122;9.952;2023-06-10T09:01:07;100737.69;;;19.62;81.09
13705;BME280;6924;52.122;9.952;2023-06-10T09:03:34;100734.66;;;19.71;80.51
13705;BME280;6924;52.122;9.952;2023-06-10T09:06:04;100735.84;;;19.86;79.85
13705;BME280;6924;52.122;9.952;2023-06-10T09:08:31;100727.28;;;19.70;79.63
13705;BME280;6924;52.122;9.952;2023-06-10T09:10:59;100731.22;;;19.65;79.76
13705;BME280;6924;52.122;9.952;2023-06-10T09:13:26;100718.66;;;19.70;82.98
13705;BME280;6924;52.122;9.952;2023-06-10T09:15:53;100716.50;;;19.83;81.94
13705;BME280;6924;52.122;9.952;2023-06-10T09:18:21;100726.91;;;20.07;81.55
13705;BME280;6924;52.122;9.952;2023-06-10T09:20:48;100720.03;;;20.11;80.22
13705;BME280;6924;52.122;9.952;2023-06-10T09:23:15;100722.28;;;20.02;80.54
13705;BME280;6924;52.122;9.952;2023-06-10T09:25:42;100717.59;;;20.13;80.73
13705;BME280;6924;52.122;9.952;2023-06-10T09:28:13;100727.13;;;20.37;81.23
13705;BME280;6924;52.122;9.952;2023-06-10T09:30:39;100724.41;;;20.44;79.69
13705;BME280;6924;52.122;9.952;2023-06-10T09:33:11;100723.78;;;20.54;78.77
13705;BME280;6924;52.122;9.952;2023-06-10T09:35:45;100736.13;;;20.74;78.85
13705;BME280;6924;52.122;9.952;2023-06-10T09:38:12;100721.06;;;20.81;79.36
13705;BME280;6924;52.122;9.952;2023-06-10T09:40:48;100714.91;;;21.02;78.53
13705;BME280;6924;52.122;9.952;2023-06-10T09:43:15;100719.41;;;21.03;77.14
13705;BME280;6924;52.122;9.952;2023-06-10T09:45:41;100715.38;;;21.08;77.72
13705;BME280;6924;52.122;9.952;2023-06-10T09:48:09;100716.47;;;21.22;77.59
13705;BME280;6924;52.122;9.952;2023-06-10T09:50:41;100715.03;;;21.32;78.13
13705;BME280;6924;52.122;9.952;2023-06-10T09:53:08;100720.38;;;21.34;77.90
13705;BME280;6924;52.122;9.952;2023-06-10T09:55:37;100717.94;;;21.36;77.58
13705;BME280;6924;52.122;9.952;2023-06-10T09:58:04;100717.25;;;21.42;76.55
13705;BME280;6924;52.122;9.952;2023-06-10T10:00:31;100717.63;;;21.64;77.09
13705;BME280;6924;52.122;9.952;2023-06-10T10:02:58;100717.25;;;21.65;76.88
13705;BME280;6924;52.122;9.952;2023-06-10T10:05:27;100714.31;;;21.62;76.16
13705;BME280;6924;52.122;9.952;2023-06-10T10:07:55;100715.81;;;21.79;75.35
13705;BME280;6924;52.122;9.952;2023-06-10T10:10:21;100712.28;;;21.93;75.03
13705;BME280;6924;52.122;9.952;2023-06-10T10:12:51;100712.53;;;22.11;75.06
13705;BME280;6924;52.122;9.952;2023-06-10T10:15:21;100713.78;;;22.10;74.21
13705;BME280;6924;52.122;9.952;2023-06-10T10:17:53;100701.84;;;22.11;75.00
13705;BME280;6924;52.122;9.952;2023-06-10T10:20:29;100698.97;;;22.11;74.48
13705;BME280;6924;52.122;9.952;2023-06-10T10:22:57;100699.84;;;22.15;73.84
13705;BME280;6924;52.122;9.952;2023-06-10T10:25:27;100698.66;;;22.16;72.80
13705;BME280;6924;52.122;9.952;2023-06-10T10:27:57;100703.16;;;22.17;73.23
13705;BME280;6924;52.122;9.952;2023-06-10T10:30:25;100690.19;;;22.31;73.31
13705;BME280;6924;52.122;9.952;2023-06-10T10:32:56;100697.81;;;22.46;73.03
13705;BME280;6924;52.122;9.952;2023-06-10T10:35:25;100694.47;;;22.44;72.11
13705;BME280;6924;52.122;9.952;2023-06-10T10:37:54;100691.66;;;22.47;71.92
13705;BME280;6924;52.122;9.952;2023-06-10T10:40:22;100692.97;;;22.54;70.81
13705;BME280;6924;52.122;9.952;2023-06-10T10:42:50;100688.97;;;22.65;72.07
13705;BME280;6924;52.122;9.952;2023-06-10T10:45:17;100694.19;;;22.90;72.80
13705;BME280;6924;52.122;9.952;2023-06-10T10:47:45;100690.28;;;23.13;71.09
13705;BME280;6924;52.122;9.952;2023-06-10T10:50:16;100683.69;;;23.08;70.06
13705;BME280;6924;52.122;9.952;2023-06-10T10:52:59;100682.88;;;23.12;70.21
13705;BME280;6924;52.122;9.952;2023-06-10T10:55:26;100676.06;;;23.30;70.03
13705;BME280;6924;52.122;9.952;2023-06-10T10:57:54;100678.22;;;23.48;68.33
13705;BME280;6924;52.122;9.952;2023-06-10T11:00:26;100678.38;;;23.66;66.58
13705;BME280;6924;52.122;9.952;2023-06-10T11:02:57;100676.41;;;23.77;67.58
13705;BME280;6924;52.122;9.952;2023-06-10T11:05:31;100680.66;;;23.98;64.66
13705;BME280;6924;52.122;9.952;2023-06-10T11:07:59;100672.78;;;23.91;65.08
13705;BME280;6924;52.122;9.952;2023-06-10T11:10:30;100676.91;;;23.90;65.50
13705;BME280;6924;52.122;9.952;2023-06-10T11:12:57;100670.75;;;23.99;64.33
13705;BME280;6924;52.122;9.952;2023-06-10T11:15:25;100672.81;;;23.95;65.42
13705;BME280;6924;52.122;9.952;2023-06-10T11:18:21;100665.44;;;24.08;65.45
13705;BME280;6924;52.122;9.952;2023-06-10T11:20:59;100664.22;;;24.16;64.56
13705;BME280;6924;52.122;9.952;2023-06-10T11:23:32;100661.75;;;24.18;63.34
13705;BME280;6924;52.122;9.952;2023-06-10T11:26:16;100657.28;;;24.35;65.24
13705;BME280;6924;52.122;9.952;2023-06-10T11:29:01;100658.22;;;24.53;63.51
13705;BME280;6924;52.122;9.952;2023-06-10T11:31:30;100653.66;;;24.56;64.38
13705;BME280;6924;52.122;9.952;2023-06-10T11:33:58;100665.22;;;24.56;62.64
13705;BME280;6924;52.122;9.952;2023-06-10T11:36:26;100652.00;;;24.51;61.49
13705;BME280;6924;52.122;9.952;2023-06-10T11:38:56;100653.22;;;24.43;63.74
13705;BME280;6924;52.122;9.952;2023-06-10T11:41:23;100651.63;;;24.64;62.64
13705;BME280;6924;52.122;9.952;2023-06-10T11:43:51;100639.63;;;24.58;61.41
13705;BME280;6924;52.122;9.952;2023-06-10T11:46:18;100646.69;;;24.71;64.42
13705;BME280;6924;52.122;9.952;2023-06-10T11:48:48;100643.38;;;24.80;61.31
13705;BME280;6924;52.122;9.952;2023-06-10T11:51:15;100645.47;;;24.90;60.38
13705;BME280;6924;52.122;9.952;2023-06-10T11:53:44;100639.25;;;24.70;60.02
13705;BME280;6924;52.122;9.952;2023-06-10T11:56:12;100639.19;;;24.56;60.62
13705;BME280;6924;52.122;9.952;2023-06-10T11:58:43;100635.50;;;24.52;61.58
13705;BME280;6924;52.122;9.952;2023-06-10T12:01:11;100642.56;;;24.65;61.22
13705;BME280;6924;52.122;9.952;2023-06-10T12:03:45;100634.72;;;24.73;60.13
13705;BME280;6924;52.122;9.952;2023-06-10T12:06:11;100636.78;;;24.83;60.59
13705;BME280;6924;52.122;9.952;2023-06-10T12:08:41;100634.31;;;24.92;61.86
13705;BME280;6924;52.122;9.952;2023-06-10T12:11:08;100635.16;;;24.97;59.19
13705;BME280;6924;52.122;9.952;2023-06-10T12:13:36;100633.50;;;24.92;61.50
13705;BME280;6924;52.122;9.952;2023-06-10T12:16:08;100625.22;;;24.90;60.67
13705;BME280;6924;52.122;9.952;2023-06-10T12:18:35;100635.97;;;24.93;59.28
13705;BME280;6924;52.122;9.952;2023-06-10T12:21:02;100630.19;;;24.97;61.30
13705;BME280;6924;52.122;9.952;2023-06-10T12:23:29;100622.75;;;24.92;58.08
13705;BME280;6924;52.122;9.952;2023-06-10T12:25:55;100629.38;;;24.97;57.99
13705;BME280;6924;52.122;9.952;2023-06-10T12:28:22;100628.13;;;25.08;58.13
13705;BME280;6924;52.122;9.952;2023-06-10T12:30:50;100621.94;;;25.17;60.39
13705;BME280;6924;52.122;9.952;2023-06-10T12:33:17;100618.66;;;25.26;58.79
13705;BME280;6924;52.122;9.952;2023-06-10T12:35:47;100624.00;;;25.31;57.57
13705;BME280;6924;52.122;9.952;2023-06-10T12:38:14;100615.75;;;25.40;56.87
13705;BME280;6924;52.122;9.952;2023-06-10T12:40:47;100609.53;;;25.45;56.53
13705;BME280;6924;52.122;9.952;2023-06-10T12:43:19;100616.13;;;25.53;56.01
13705;BME280;6924;52.122;9.952;2023-06-10T12:45:46;100614.91;;;25.36;55.92
13705;BME280;6924;52.122;9.952;2023-06-10T12:48:18;100598.78;;;25.28;57.05
13705;BME280;6924;52.122;9.952;2023-06-10T12:50:50;100603.75;;;25.27;57.08
13705;BME280;6924;52.122;9.952;2023-06-10T12:53:17;100601.69;;;25.24;57.28
13705;BME280;6924;52.122;9.952;2023-06-10T12:55:44;100586.00;;;25.29;57.24
13705;BME280;6924;52.122;9.952;2023-06-10T12:58:11;100590.91;;;25.39;58.26
13705;BME280;6924;52.122;9.952;2023-06-10T13:00:38;100586.75;;;25.51;57.83
13705;BME280;6924;52.122;9.952;2023-06-10T13:03:05;100587.13;;;25.64;55.18